Time;durP1;ratioP1;P1;durP2;ratioP2;P2;SDS_P1;SDS_P2;PMS_P1;PMS_P2;Temp;Humidity;BMP_temperature;BMP_pressure;BME280_temperature;BME280_humidity;BME280_pressure;Samples;Min_cycle;Max_cycle;Signal;HPM_P1;HPM_P2
2021/07/28 00:00:35;;;;;;;7.50;6.25;;;18.80;99.90;;;;;;5051271;28;20624;-83
2021/07/28 00:03:01;;;;;;;6.55;5.88;;;18.80;99.90;;;;;;5052531;28;20536;-82
2021/07/28 00:05:27;;;;;;;7.35;6.65;;;18.70;99.90;;;;;;5052520;28;20214;-81
2021/07/28 00:07:52;;;;;;;7.57;5.53;;;18.80;99.90;;;;;;5052343;28;20212;-81
2021/07/28 00:10:19;;;;;;;6.85;6.15;;;18.60;99.90;;;;;;5050913;28;20163;-81
2021/07/28 00:12:44;;;;;;;8.27;6.43;;;18.50;99.90;;;;;;5034126;28;20686;-81
2021/07/28 00:15:11;;;;;;;8.80;6.95;;;18.50;99.90;;;;;;5034107;28;20245;-81
2021/07/28 00:17:51;;;;;;;6.65;6.03;;;18.60;99.90;;;;;;5034292;28;20178;-81
2021/07/28 00:25:34;;;;;;;7.30;6.43;;;18.70;99.90;;;;;;5052174;28;20705;-81
2021/07/28 00:28:00;;;;;;;10.88;6.07;;;18.70;99.90;;;;;;5034360;28;20202;-81
2021/07/28 00:30:26;;;;;;;7.07;6.38;;;18.90;99.90;;;;;;5034442;28;20163;-81
2021/07/28 00:32:52;;;;;;;7.10;6.47;;;18.90;99.90;;;;;;5050961;28;20175;-81
2021/07/28 00:35:17;;;;;;;9.32;6.97;;;18.80;99.90;;;;;;5055238;28;20543;-82
2021/07/28 00:37:45;;;;;;;7.72;6.80;;;18.80;99.90;;;;;;5038645;28;20225;-81
2021/07/28 00:40:12;;;;;;;8.20;6.72;;;18.60;99.90;;;;;;5055034;28;20175;-81
2021/07/28 00:42:38;;;;;;;10.80;7.35;;;18.70;99.90;;;;;;5054726;28;20713;-81
2021/07/28 00:45:04;;;;;;;11.48;7.43;;;18.80;99.90;;;;;;5038242;28;20187;-80
2021/07/28 00:47:30;;;;;;;13.57;7.78;;;18.60;99.90;;;;;;5038193;28;20175;-83
2021/07/28 00:49:55;;;;;;;9.23;7.55;;;18.50;99.90;;;;;;5056256;28;20174;-81
2021/07/28 00:52:21;;;;;;;7.13;6.43;;;18.50;99.90;;;;;;5038228;28;20179;-82
2021/07/28 00:54:48;;;;;;;12.85;7.53;;;18.50;99.90;;;;;;5056055;28;20183;-80
2021/07/28 00:57:13;;;;;;;10.85;7.57;;;18.50;99.90;;;;;;5038237;28;20173;-81
2021/07/28 00:59:40;;;;;;;11.07;6.88;;;18.70;99.90;;;;;;5056008;28;20175;-81
2021/07/28 01:02:05;;;;;;;11.15;7.43;;;18.80;99.90;;;;;;5055610;28;20207;-81
2021/07/28 01:04:31;;;;;;;14.82;7.45;;;18.90;99.90;;;;;;5055857;28;20164;-85
2021/07/28 01:06:59;;;;;;;12.15;7.50;;;18.90;99.90;;;;;;5038146;28;20641;-82
2021/07/28 01:09:28;;;;;;;10.70;8.38;;;18.90;99.90;;;;;;5037418;28;20648;-81
2021/07/28 01:12:02;;;;;;;11.10;7.68;;;18.90;99.90;;;;;;5037566;28;20179;-81
2021/07/28 01:14:27;;;;;;;9.70;6.85;;;19.00;99.90;;;;;;5037800;28;20171;-82
2021/07/28 01:16:55;;;;;;;10.18;8.20;;;19.10;99.90;;;;;;5037757;28;20175;-82
2021/07/28 01:19:26;;;;;;;14.48;7.00;;;19.10;99.90;;;;;;5054272;28;20221;-83
2021/07/28 01:21:53;;;;;;;14.45;7.22;;;19.00;99.90;;;;;;5055469;28;20217;-81
2021/07/28 01:24:20;;;;;;;11.07;7.97;;;19.00;99.90;;;;;;5055163;28;20167;-80
2021/07/28 01:26:46;;;;;;;8.20;7.25;;;18.90;99.90;;;;;;5055024;28;20220;-81
2021/07/28 01:29:12;;;;;;;8.35;7.53;;;18.70;99.90;;;;;;5037507;28;20193;-81
2021/07/28 01:31:40;;;;;;;8.23;7.43;;;18.80;99.90;;;;;;5037085;28;20163;-81
2021/07/28 01:34:08;;;;;;;12.27;7.85;;;18.90;99.90;;;;;;5055545;28;20183;-81
2021/07/28 01:36:34;;;;;;;10.18;7.35;;;19.00;99.90;;;;;;5037260;28;20195;-83
2021/07/28 01:39:02;;;;;;;9.30;7.20;;;19.00;99.90;;;;;;5037233;28;20642;-81
2021/07/28 01:41:27;;;;;;;12.00;7.25;;;19.10;99.90;;;;;;5055014;28;20163;-82
2021/07/28 01:43:53;;;;;;;15.93;8.57;;;19.10;99.90;;;;;;5053842;28;20171;-81
2021/07/28 01:46:18;;;;;;;10.73;7.90;;;19.20;99.90;;;;;;5053961;28;20198;-80
2021/07/28 01:48:44;;;;;;;10.40;7.70;;;19.30;99.90;;;;;;5055045;28;20167;-81
2021/07/28 01:51:10;;;;;;;9.95;7.45;;;19.20;99.90;;;;;;5055070;28;20166;-81
2021/07/28 01:53:37;;;;;;;9.00;8.00;;;19.10;99.90;;;;;;5037196;28;20187;-80
2021/07/28 01:56:03;;;;;;;11.60;7.97;;;19.00;99.90;;;;;;5037099;28;20268;-81
2021/07/28 01:58:29;;;;;;;15.60;8.07;;;19.00;99.90;;;;;;5036714;28;20221;-81
2021/07/28 02:00:55;;;;;;;13.13;6.80;;;18.90;99.90;;;;;;5037267;28;20171;-83
2021/07/28 02:03:21;;;;;;;7.97;7.10;;;19.10;99.90;;;;;;5054722;28;20210;-81
2021/07/28 02:05:47;;;;;;;10.68;6.90;;;19.10;99.90;;;;;;5036892;28;20729;-81
2021/07/28 02:08:15;;;;;;;10.70;7.38;;;19.20;99.90;;;;;;5036919;28;20166;-81
2021/07/28 02:10:44;;;;;;;14.13;6.60;;;19.50;99.90;;;;;;5036573;28;20167;-81
2021/07/28 02:13:10;;;;;;;7.80;6.97;;;19.30;99.90;;;;;;5036666;28;20179;-80
2021/07/28 02:15:36;;;;;;;19.45;7.82;;;19.20;99.90;;;;;;5036384;28;20221;-81
2021/07/28 02:18:03;;;;;;;12.85;7.47;;;19.20;99.90;;;;;;5036345;28;20544;-80
2021/07/28 02:20:29;;;;;;;8.45;7.25;;;19.20;99.90;;;;;;5036391;28;20583;-82
2021/07/28 02:22:55;;;;;;;8.40;6.97;;;19.20;99.90;;;;;;5035997;28;20236;-81
2021/07/28 02:25:21;;;;;;;9.88;8.13;;;19.20;99.90;;;;;;5036568;28;20191;-81
2021/07/28 02:27:47;;;;;;;8.90;7.25;;;19.20;99.90;;;;;;5036580;28;20228;-81
2021/07/28 02:30:16;;;;;;;10.70;7.68;;;19.40;99.90;;;;;;5036613;28;20258;-81
2021/07/28 02:32:42;;;;;;;9.45;7.53;;;19.20;99.90;;;;;;5036125;28;20233;-80
2021/07/28 02:35:08;;;;;;;10.68;7.65;;;19.10;99.90;;;;;;5036281;28;20179;-82
2021/07/28 02:37:35;;;;;;;9.07;7.03;;;19.20;99.90;;;;;;5036252;28;20164;-81
2021/07/28 02:40:01;;;;;;;9.43;7.05;;;19.20;99.90;;;;;;5036088;28;20218;-81
2021/07/28 02:42:27;;;;;;;11.82;6.78;;;19.20;99.90;;;;;;5036052;28;20317;-81
2021/07/28 02:44:53;;;;;;;9.80;6.93;;;19.40;99.90;;;;;;5036199;28;20672;-81
2021/07/28 02:47:18;;;;;;;10.27;7.63;;;19.30;99.90;;;;;;5035832;28;20711;-81
2021/07/28 02:49:44;;;;;;;11.15;8.43;;;19.10;99.90;;;;;;5035734;28;20195;-81
2021/07/28 02:52:10;;;;;;;10.38;7.93;;;19.10;99.90;;;;;;5053557;28;20209;-81
2021/07/28 02:54:35;;;;;;;14.25;6.32;;;19.20;99.90;;;;;;5036018;28;20175;-81
2021/07/28 02:57:01;;;;;;;7.80;7.10;;;19.20;99.90;;;;;;5052450;28;20171;-81
2021/07/28 02:59:27;;;;;;;8.40;6.72;;;19.10;99.90;;;;;;5051784;28;20167;-80
2021/07/28 03:01:52;;;;;;;10.57;7.53;;;19.10;99.90;;;;;;5035704;28;20214;-80
2021/07/28 03:04:19;;;;;;;8.30;7.35;;;19.20;99.90;;;;;;5053579;28;20170;-81
2021/07/28 03:06:45;;;;;;;7.25;6.55;;;19.40;99.90;;;;;;5053596;28;20167;-81
2021/07/28 03:09:11;;;;;;;10.65;6.78;;;19.30;99.90;;;;;;5035596;28;20175;-82
2021/07/28 03:11:37;;;;;;;7.70;7.00;;;19.40;99.90;;;;;;5053469;28;20156;-82
2021/07/28 03:14:03;;;;;;;7.95;7.13;;;19.50;99.90;;;;;;5051982;28;20273;-82
2021/07/28 03:16:29;;;;;;;8.45;7.57;;;19.40;99.90;;;;;;5035509;28;20266;-81
2021/07/28 03:18:55;;;;;;;9.10;7.75;;;19.40;99.90;;;;;;5035288;28;20175;-81
2021/07/28 03:21:20;;;;;;;12.57;7.25;;;19.30;99.90;;;;;;5035310;28;20190;-81
2021/07/28 03:23:46;;;;;;;8.07;6.55;;;19.40;99.90;;;;;;5053234;28;20620;-80
2021/07/28 03:26:12;;;;;;;8.30;6.80;;;19.50;99.90;;;;;;5053242;28;20209;-80
2021/07/28 03:28:38;;;;;;;13.57;6.32;;;19.40;99.90;;;;;;5052050;28;20221;-81
2021/07/28 03:31:04;;;;;;;6.15;5.60;;;19.30;99.90;;;;;;5035084;28;20175;-81
2021/07/28 03:33:30;;;;;;;6.22;5.63;;;19.10;99.90;;;;;;5035211;28;20178;-81
2021/07/28 03:35:55;;;;;;;8.23;5.82;;;19.00;99.90;;;;;;5053108;28;20234;-80
2021/07/28 03:38:21;;;;;;;9.70;5.93;;;19.00;99.90;;;;;;5051717;28;20265;-80
2021/07/28 03:40:47;;;;;;;7.00;5.78;;;18.80;99.90;;;;;;5035145;28;20232;-80
2021/07/28 03:43:14;;;;;;;8.13;5.95;;;18.70;99.90;;;;;;5034691;28;20622;-81
2021/07/28 03:45:40;;;;;;;12.05;5.38;;;18.80;99.90;;;;;;5051467;28;20191;-80
2021/07/28 03:48:06;;;;;;;7.28;5.35;;;18.70;99.90;;;;;;5053036;28;20285;-80
2021/07/28 03:50:31;;;;;;;6.68;5.32;;;18.70;99.90;;;;;;5052827;28;20178;-81
2021/07/28 03:52:59;;;;;;;9.98;5.63;;;18.70;99.90;;;;;;5052744;28;20530;-80
2021/07/28 03:55:25;;;;;;;6.10;5.47;;;18.70;99.90;;;;;;5052630;28;20262;-80
2021/07/28 03:57:51;;;;;;;15.70;6.05;;;18.60;99.90;;;;;;5052693;28;20167;-81
2021/07/28 04:00:17;;;;;;;11.73;5.70;;;18.60;99.90;;;;;;5034564;28;20581;-80
2021/07/28 04:02:43;;;;;;;8.50;4.93;;;18.60;99.90;;;;;;5034580;28;20237;-80
2021/07/28 04:05:09;;;;;;;10.52;5.55;;;18.50;99.90;;;;;;5050970;28;20542;-80
2021/07/28 04:07:35;;;;;;;10.30;4.75;;;18.50;99.90;;;;;;5034412;28;20171;-81
2021/07/28 04:10:01;;;;;;;8.35;4.78;;;18.50;99.90;;;;;;5052072;28;20167;-81
2021/07/28 04:12:26;;;;;;;10.55;4.82;;;18.50;99.90;;;;;;5052215;28;20167;-79
2021/07/28 04:14:52;;;;;;;5.25;4.30;;;18.50;99.90;;;;;;5034160;28;20241;-81
2021/07/28 04:17:18;;;;;;;6.78;4.45;;;18.50;99.90;;;;;;5034416;28;20177;-80
2021/07/28 04:19:48;;;;;;;8.35;3.60;;;18.40;99.90;;;;;;5050998;28;20623;-81
2021/07/28 04:22:15;;;;;;;5.75;4.07;;;18.30;99.90;;;;;;5050510;28;20233;-80
2021/07/28 04:24:40;;;;;;;8.48;4.18;;;18.20;99.90;;;;;;5051856;28;20207;-80
2021/07/28 04:27:06;;;;;;;10.63;3.67;;;18.30;99.90;;;;;;5034314;28;20623;-81
2021/07/28 04:29:32;;;;;;;3.65;3.30;;;18.30;99.90;;;;;;5052074;28;20265;-81
2021/07/28 04:31:57;;;;;;;8.63;4.32;;;18.20;99.90;;;;;;5052203;28;20179;-80
2021/07/28 04:34:23;;;;;;;3.83;3.45;;;18.20;99.90;;;;;;5052098;28;20627;-80
2021/07/28 04:36:48;;;;;;;24.38;4.03;;;18.00;99.90;;;;;;5051942;28;20171;-80
2021/07/28 04:39:14;;;;;;;4.78;3.20;;;18.10;99.90;;;;;;5034367;28;20243;-80
2021/07/28 04:41:39;;;;;;;6.10;3.58;;;18.10;99.90;;;;;;5050739;28;20255;-80
2021/07/28 04:44:05;;;;;;;5.80;3.35;;;18.10;99.90;;;;;;5052016;28;20232;-80
2021/07/28 04:46:31;;;;;;;6.07;2.85;;;18.10;99.90;;;;;;5050454;28;20270;-80
2021/07/28 04:48:56;;;;;;;10.73;3.65;;;18.00;99.90;;;;;;5052018;28;20246;-80
2021/07/28 04:51:22;;;;;;;14.73;3.95;;;18.00;99.90;;;;;;5033767;28;20179;-80
2021/07/28 04:53:48;;;;;;;11.02;3.30;;;18.00;99.90;;;;;;5051827;28;20172;-80
2021/07/28 04:56:13;;;;;;;13.18;3.83;;;18.20;99.90;;;;;;5034088;28;20249;-80
2021/07/28 04:58:39;;;;;;;5.20;3.83;;;18.10;99.90;;;;;;5050641;28;20259;-80
2021/07/28 05:01:04;;;;;;;18.15;3.97;;;18.20;99.90;;;;;;5050771;28;20599;-80
2021/07/28 05:03:30;;;;;;;4.63;3.50;;;18.30;99.90;;;;;;5051460;28;20206;-80
2021/07/28 05:05:55;;;;;;;5.22;4.18;;;18.30;99.90;;;;;;5033707;28;20207;-79
2021/07/28 05:08:21;;;;;;;9.05;3.50;;;18.30;99.90;;;;;;5052062;28;20695;-79
2021/07/28 05:10:48;;;;;;;6.68;3.25;;;18.40;99.90;;;;;;5034014;28;20175;-80
2021/07/28 05:13:14;;;;;;;7.00;3.17;;;18.30;99.90;;;;;;5051853;28;20202;-80
2021/07/28 05:15:40;;;;;;;5.03;2.97;;;18.30;99.90;;;;;;5051751;28;20207;-80
2021/07/28 05:18:05;;;;;;;10.48;3.35;;;18.30;99.90;;;;;;5033943;28;20698;-81
2021/07/28 05:20:31;;;;;;;4.43;2.78;;;18.20;99.90;;;;;;5051747;28;20183;-81
2021/07/28 05:22:57;;;;;;;10.90;3.35;;;18.10;99.90;;;;;;5037451;28;20687;-81
2021/07/28 05:25:23;;;;;;;7.25;3.60;;;18.10;99.90;;;;;;5055924;28;20187;-81
2021/07/28 05:27:48;;;;;;;4.28;3.15;;;18.20;99.90;;;;;;5037348;28;20194;-81
2021/07/28 05:30:14;;;;;;;15.73;4.00;;;18.20;99.90;;;;;;5037114;28;20167;-81
2021/07/28 05:32:40;;;;;;;8.32;3.38;;;18.20;99.90;;;;;;5037016;28;20167;-81
2021/07/28 05:35:06;;;;;;;8.95;3.40;;;18.50;99.90;;;;;;5053482;28;20269;-81
2021/07/28 05:37:32;;;;;;;10.85;3.25;;;18.30;99.90;;;;;;5037169;28;20616;-81
2021/07/28 05:39:57;;;;;;;14.13;7.43;;;18.30;99.90;;;;;;5037099;28;20221;-81
2021/07/28 05:42:23;;;;;;;6.78;3.08;;;18.20;99.90;;;;;;5053799;28;20279;-81
2021/07/28 05:44:48;;;;;;;6.63;3.70;;;18.30;99.90;;;;;;5054910;28;20217;-80
2021/07/28 05:47:14;;;;;;;6.93;3.47;;;18.50;99.90;;;;;;5037552;28;20615;-79
2021/07/28 05:49:40;;;;;;;13.00;4.40;;;18.60;99.90;;;;;;5054735;28;20165;-80
2021/07/28 05:52:06;;;;;;;9.88;4.10;;;18.50;99.90;;;;;;5037226;28;20175;-80
2021/07/28 05:54:31;;;;;;;13.15;4.05;;;18.60;99.90;;;;;;5054655;28;20195;-79
2021/07/28 05:56:57;;;;;;;13.00;3.75;;;18.80;99.90;;;;;;5053406;28;20705;-80
2021/07/28 05:59:23;;;;;;;10.05;3.90;;;19.00;99.90;;;;;;5037069;28;20233;-79
2021/07/28 06:01:49;;;;;;;15.40;4.57;;;19.10;99.90;;;;;;5053355;28;20564;-79
2021/07/28 06:04:14;;;;;;;18.73;4.68;;;19.30;99.90;;;;;;5036670;28;20163;-80
2021/07/28 06:06:40;;;;;;;13.18;3.88;;;19.30;99.90;;;;;;5037118;28;20183;-80
2021/07/28 06:09:05;;;;;;;6.55;3.97;;;19.40;99.90;;;;;;5037499;28;20159;-81
2021/07/28 06:11:31;;;;;;;7.90;3.80;;;19.30;99.90;;;;;;5036683;28;20183;-81
2021/07/28 06:13:57;;;;;;;13.15;4.53;;;19.20;99.90;;;;;;5053388;28;20210;-81
2021/07/28 06:16:23;;;;;;;6.72;3.60;;;19.20;99.90;;;;;;5054395;28;20555;-81
2021/07/28 06:18:48;;;;;;;7.00;3.90;;;19.30;99.90;;;;;;5036178;28;20179;-81
2021/07/28 06:21:14;;;;;;;7.72;4.32;;;19.40;99.90;;;;;;5036186;28;20171;-81
2021/07/28 06:23:40;;;;;;;11.02;3.80;;;19.50;99.90;;;;;;5054083;28;20232;-81
2021/07/28 06:26:06;;;;;;;4.75;3.25;;;19.60;99.90;;;;;;5036523;28;20190;-80
2021/07/28 06:28:33;;;;;;;6.80;3.38;;;20.00;99.90;;;;;;5054430;28;20269;-81
2021/07/28 06:30:59;;;;;;;12.10;3.08;;;20.20;99.90;;;;;;5054543;28;20167;-86
2021/07/28 06:33:25;;;;;;;10.43;3.50;;;20.10;99.90;;;;;;5054320;28;20175;-84
2021/07/28 06:35:51;;;;;;;4.70;3.17;;;20.00;99.90;;;;;;5036055;28;20179;-82
2021/07/28 06:38:18;;;;;;;23.58;3.83;;;19.90;99.90;;;;;;5054136;28;20653;-81
2021/07/28 06:40:44;;;;;;;8.75;2.72;;;20.20;99.90;;;;;;5036138;28;20171;-83
2021/07/28 06:43:10;;;;;;;5.60;3.55;;;20.30;99.90;;;;;;5035667;28;20203;-81
2021/07/28 06:45:36;;;;;;;17.77;3.30;;;20.30;99.90;;;;;;5036000;28;20948;-79
2021/07/28 06:48:02;;;;;;;2.90;2.20;;;20.40;99.90;;;;;;5053778;28;20259;-79
2021/07/28 06:50:28;;;;;;;11.93;3.53;;;20.40;99.90;;;;;;5053831;28;20174;-81
2021/07/28 06:52:54;;;;;;;6.90;2.13;;;20.50;99.90;;;;;;5036065;28;20176;-80
2021/07/28 06:55:19;;;;;;;6.43;2.75;;;20.90;99.90;;;;;;5035471;28;20274;-80
2021/07/28 06:57:45;;;;;;;6.32;2.60;;;20.90;99.90;;;;;;5053817;28;20199;-81
2021/07/28 07:00:11;;;;;;;13.75;2.92;;;20.60;99.90;;;;;;5035869;28;20555;-84
2021/07/28 07:02:37;;;;;;;14.60;2.92;;;20.60;99.90;;;;;;5035623;28;20297;-83
2021/07/28 07:05:04;;;;;;;13.93;2.53;;;20.60;99.90;;;;;;5035945;28;20279;-84
2021/07/28 07:07:29;;;;;;;8.82;2.67;;;20.60;99.90;;;;;;5035554;28;20608;-80
2021/07/28 07:09:55;;;;;;;5.38;2.13;;;20.50;99.90;;;;;;5053515;28;20240;-79
2021/07/28 07:12:22;;;;;;;5.70;2.13;;;20.50;99.90;;;;;;5053128;28;20171;-79
2021/07/28 07:14:48;;;;;;;7.22;2.40;;;20.40;99.90;;;;;;5053578;28;20194;-80
2021/07/28 07:17:14;;;;;;;6.28;2.10;;;20.50;99.90;;;;;;5053578;28;20176;-79
2021/07/28 07:19:39;;;;;;;4.32;2.47;;;20.60;99.90;;;;;;5053448;28;20159;-80
2021/07/28 07:22:05;;;;;;;5.20;1.95;;;21.10;99.90;;;;;;5053719;28;20252;-85
2021/07/28 07:24:31;;;;;;;4.20;1.83;;;21.50;99.90;;;;;;5054713;28;20166;-84
2021/07/28 07:26:57;;;;;;;5.13;1.90;;;22.20;99.90;;;;;;5054331;28;20163;-83
2021/07/28 07:29:22;;;;;;;5.07;2.33;;;22.70;99.90;;;;;;5036455;28;20182;-85
2021/07/28 07:31:48;;;;;;;5.10;2.15;;;23.40;99.90;;;;;;5036474;28;20246;-86
2021/07/28 07:34:14;;;;;;;7.32;1.73;;;23.70;99.90;;;;;;5054501;28;20193;-85
2021/07/28 07:36:40;;;;;;;2.10;1.55;;;24.80;99.90;;;;;;5054856;28;20214;-88
2021/07/28 07:39:05;;;;;;;10.05;1.98;;;24.30;99.90;;;;;;5037251;28;20182;-83
2021/07/28 07:41:31;;;;;;;3.53;1.42;;;23.70;99.90;;;;;;5037142;28;20175;-87
2021/07/28 07:43:58;;;;;;;5.65;1.45;;;24.50;99.90;;;;;;5054224;28;20179;-86
2021/07/28 07:46:24;;;;;;;6.03;1.67;;;24.70;99.90;;;;;;5054153;28;20187;-85
2021/07/28 07:48:50;;;;;;;3.25;1.33;;;24.10;99.90;;;;;;5054674;28;20254;-86
2021/07/28 07:51:15;;;;;;;3.03;1.65;;;23.50;99.90;;;;;;5055348;28;20194;-87
2021/07/28 07:53:41;;;;;;;4.43;1.85;;;23.10;99.90;;;;;;5054367;28;20531;-85
2021/07/28 07:56:07;;;;;;;6.22;2.30;;;22.70;99.90;;;;;;5054174;28;20194;-85
2021/07/28 07:58:36;;;;;;;9.63;1.95;;;22.60;99.90;;;;;;5054402;28;20209;-90
2021/07/28 08:01:12;;;;;;;2.17;1.65;;;22.50;99.90;;;;;;5054258;28;20631;-87
2021/07/28 08:03:39;;;;;;;10.45;1.75;;;22.30;99.90;;;;;;5054380;28;20586;-87
2021/07/28 08:06:05;;;;;;;15.77;1.70;;;22.20;99.90;;;;;;5055578;28;20187;-86
2021/07/28 08:08:31;;;;;;;2.95;2.13;;;22.50;99.90;;;;;;5054571;28;20175;-84
2021/07/28 08:10:57;;;;;;;5.63;1.85;;;22.50;99.90;;;;;;5054341;28;20495;-90
2021/07/28 08:13:23;;;;;;;5.68;1.60;;;22.60;99.90;;;;;;5040475;28;20167;-88
2021/07/28 08:15:49;;;;;;;10.27;1.85;;;22.60;99.90;;;;;;5037744;28;20190;-88
2021/07/28 08:18:15;;;;;;;5.07;1.63;;;22.50;99.90;;;;;;5038511;28;20175;-88
2021/07/28 08:20:41;;;;;;;5.30;1.95;;;22.20;99.90;;;;;;5041887;28;20170;-86
2021/07/28 08:23:07;;;;;;;6.28;1.80;;;21.90;99.90;;;;;;5050763;28;20195;-87
2021/07/28 08:25:33;;;;;;;3.10;2.22;;;21.50;99.90;;;;;;5067786;28;20286;-88
2021/07/28 08:27:58;;;;;;;4.93;2.03;;;21.50;99.90;;;;;;5051862;28;20213;-88
2021/07/28 08:30:24;;;;;;;3.13;1.90;;;21.60;99.90;;;;;;5049064;28;20170;-89
2021/07/28 08:32:50;;;;;;;4.10;1.85;;;21.60;99.90;;;;;;5053366;28;20684;-88
2021/07/28 08:35:15;;;;;;;3.05;1.75;;;21.20;99.90;;;;;;5052442;28;20274;-89
2021/07/28 08:37:41;;;;;;;3.65;1.73;;;21.20;99.90;;;;;;5057497;28;20193;-86
2021/07/28 08:40:10;;;;;;;6.53;1.63;;;21.10;99.90;;;;;;5032707;28;20649;-84
2021/07/28 08:42:37;;;;;;;4.55;1.88;;;21.10;99.90;;;;;;5053550;28;20195;-88
2021/07/28 08:45:04;;;;;;;5.30;1.73;;;21.30;99.90;;;;;;5041540;28;20262;-85
2021/07/28 08:47:31;;;;;;;3.03;1.67;;;21.30;99.90;;;;;;5047474;28;20171;-91
2021/07/28 08:49:57;;;;;;;2.53;1.83;;;21.50;99.90;;;;;;5056525;28;20259;-88
2021/07/28 08:52:24;;;;;;;11.68;1.92;;;21.70;99.90;;;;;;5059980;28;20635;-88
2021/07/28 08:54:49;;;;;;;2.08;1.80;;;22.20;99.90;;;;;;5060429;28;20187;-85
2021/07/28 08:57:15;;;;;;;3.83;1.63;;;22.50;99.90;;;;;;5046651;28;20258;-87
2021/07/28 08:59:41;;;;;;;7.70;2.00;;;22.60;99.90;;;;;;5047772;28;20186;-92
2021/07/28 09:02:07;;;;;;;9.88;1.80;;;22.60;99.90;;;;;;5044165;28;20229;-84
2021/07/28 09:04:33;;;;;;;8.38;1.88;;;22.50;99.90;;;;;;5045621;28;20186;-85
2021/07/28 09:07:14;;;;;;;6.03;1.85;;;22.40;99.90;;;;;;5069725;28;20170;-88
2021/07/28 09:09:51;;;;;;;7.75;1.73;;;22.40;99.90;;;;;;5066629;28;20175;-91
2021/07/28 09:12:19;;;;;;;4.47;1.55;;;22.10;99.90;;;;;;5069795;28;20201;-85
2021/07/28 09:14:53;;;;;;;4.47;1.65;;;21.80;99.90;;;;;;5050679;28;20282;-89
2021/07/28 09:17:23;;;;;;;10.23;1.65;;;21.80;99.90;;;;;;5062517;28;20170;-93
2021/07/28 09:20:11;;;;;;;4.00;1.63;;;21.60;99.90;;;;;;5044078;28;20217;-84
2021/07/28 09:22:39;;;;;;;2.33;1.42;;;21.80;99.90;;;;;;5040063;28;20235;-93
2021/07/28 09:25:06;;;;;;;6.97;2.45;;;21.80;99.90;;;;;;5039829;28;20187;-92
2021/07/28 09:27:42;;;;;;;3.65;1.75;;;21.80;99.90;;;;;;5039748;28;20171;-94
2021/07/28 09:30:09;;;;;;;2.08;1.90;;;22.10;99.90;;;;;;5039435;28;20187;-94
2021/07/28 09:32:54;;;;;;;4.82;1.48;;;22.30;99.90;;;;;;5039522;28;20167;-88
2021/07/28 09:35:45;;;;;;;1.70;1.60;;;22.40;99.90;;;;;;5039261;28;20202;-91
2021/07/28 09:38:11;;;;;;;5.65;1.77;;;22.30;99.90;;;;;;5043265;28;20663;-92
2021/07/28 09:40:36;;;;;;;3.10;1.85;;;22.50;99.90;;;;;;5040007;28;20166;-88
2021/07/28 09:43:05;;;;;;;3.22;1.40;;;22.70;99.90;;;;;;5057445;28;20732;-87
2021/07/28 09:45:31;;;;;;;1.42;1.20;;;23.10;99.90;;;;;;5056747;28;20223;-90
2021/07/28 09:47:56;;;;;;;3.10;1.73;;;23.20;99.90;;;;;;5039665;28;20180;-89
2021/07/28 09:50:22;;;;;;;2.78;1.80;;;22.80;99.90;;;;;;5039155;28;20254;-92
2021/07/28 09:52:51;;;;;;;3.30;1.30;;;22.70;99.90;;;;;;5039750;28;20167;-89
2021/07/28 09:55:30;;;;;;;5.70;2.15;;;22.50;99.90;;;;;;5056958;28;20218;-92
2021/07/28 09:57:57;;;;;;;4.75;1.90;;;22.60;99.90;;;;;;5056033;28;20210;-90
2021/07/28 10:00:26;;;;;;;1.65;1.55;;;22.70;99.90;;;;;;5050606;28;20172;-94
2021/07/28 10:02:53;;;;;;;6.05;1.73;;;22.90;99.90;;;;;;5039903;28;20213;-93
2021/07/28 10:05:22;;;;;;;3.25;1.40;;;23.00;99.90;;;;;;5039644;28;20186;-87
2021/07/28 10:07:50;;;;;;;4.20;1.30;;;23.40;99.90;;;;;;5058793;28;20179;-89
2021/07/28 10:10:19;;;;;;;4.55;1.40;;;23.50;99.90;;;;;;5039859;28;20163;-92
2021/07/28 10:12:49;;;;;;;7.75;1.60;;;23.30;99.90;;;;;;5057709;28;20168;-88
2021/07/28 10:15:18;;;;;;;2.38;1.88;;;23.10;99.90;;;;;;5026057;28;20201;-90
2021/07/28 10:17:46;;;;;;;4.32;1.50;;;22.80;99.90;;;;;;5065295;28;20239;-92
2021/07/28 10:20:13;;;;;;;3.17;1.65;;;22.90;99.90;;;;;;5041182;28;20171;-93
2021/07/28 10:22:40;;;;;;;7.78;1.52;;;23.00;99.90;;;;;;5040642;28;20199;-91
2021/07/28 10:25:13;;;;;;;3.38;1.98;;;23.10;99.90;;;;;;5059697;28;20196;-89
2021/07/28 10:27:50;;;;;;;2.20;1.80;;;23.00;99.90;;;;;;5040337;28;20171;-87
2021/07/28 10:30:19;;;;;;;5.50;1.77;;;22.80;99.90;;;;;;5039586;28;20186;-87
2021/07/28 10:32:45;;;;;;;7.22;1.83;;;22.60;99.90;;;;;;5040295;28;20242;-94
2021/07/28 10:35:23;;;;;;;6.72;2.00;;;22.60;99.90;;;;;;5039063;28;20218;-95
2021/07/28 10:37:51;;;;;;;2.60;1.35;;;22.80;99.90;;;;;;5039872;28;20174;-92
2021/07/28 10:40:23;;;;;;;6.32;1.58;;;23.00;99.90;;;;;;5026813;28;20167;-95
2021/07/28 10:42:49;;;;;;;2.90;1.58;;;23.20;99.90;;;;;;5040725;28;20214;-92
2021/07/28 10:45:17;;;;;;;3.72;1.45;;;23.40;99.90;;;;;;5041046;28;20252;-84
2021/07/28 10:47:51;;;;;;;3.83;1.48;;;23.60;99.90;;;;;;5023432;28;20666;-89
2021/07/28 10:50:25;;;;;;;2.05;1.33;;;23.60;99.90;;;;;;5038249;28;20592;-93
2021/07/28 10:53:37;;;;;;;3.22;1.45;;;23.50;99.90;;;;;;5038128;28;20190;-86
2021/07/28 10:56:10;;;;;;;1.63;1.40;;;23.80;99.90;;;;;;5038225;28;20252;-89
2021/07/28 10:58:36;;;;;;;5.25;1.52;;;23.90;99.90;;;;;;5023533;28;20224;-93
2021/07/28 11:01:01;;;;;;;3.03;1.75;;;24.00;99.90;;;;;;5039444;28;20159;-91
2021/07/28 11:03:31;;;;;;;4.47;1.95;;;24.30;99.90;;;;;;5052477;28;20254;-90
2021/07/28 11:06:15;;;;;;;3.42;1.90;;;24.50;99.90;;;;;;5059399;28;20217;-89
2021/07/28 11:08:41;;;;;;;5.20;1.67;;;24.50;99.90;;;;;;5060155;28;20177;-90
2021/07/28 11:11:07;;;;;;;5.10;1.70;;;24.50;99.90;;;;;;5070262;28;20168;-80
2021/07/28 11:13:33;;;;;;;4.90;1.38;;;24.30;99.90;;;;;;5072206;28;20205;-84
2021/07/28 11:16:05;;;;;;;2.00;1.90;;;24.10;99.90;;;;;;5057593;28;20693;-86
2021/07/28 11:18:38;;;;;;;5.32;1.83;;;24.10;99.90;;;;;;5058224;28;20198;-88
2021/07/28 11:21:16;;;;;;;3.97;1.38;;;24.30;99.90;;;;;;5061253;28;20159;-92
2021/07/28 11:23:51;;;;;;;2.03;1.35;;;24.10;99.90;;;;;;5059585;28;20198;-90
2021/07/28 11:26:22;;;;;;;6.43;1.58;;;24.10;99.90;;;;;;5060678;28;20212;-90
2021/07/28 11:28:50;;;;;;;3.25;1.75;;;23.80;99.90;;;;;;5047100;28;20201;-91
2021/07/28 11:31:24;;;;;;;6.22;1.90;;;23.70;99.90;;;;;;5044104;28;20227;-91
2021/07/28 11:33:49;;;;;;;4.63;1.50;;;23.50;99.90;;;;;;5045716;28;20242;-85
2021/07/28 11:36:19;;;;;;;3.38;1.23;;;23.00;99.90;;;;;;5046625;28;20191;-92
2021/07/28 11:38:46;;;;;;;1.75;1.40;;;22.60;99.90;;;;;;5050626;28;20230;-93
2021/07/28 11:41:11;;;;;;;7.95;1.50;;;22.20;99.90;;;;;;5051034;28;20163;-90
2021/07/28 11:43:39;;;;;;;1.50;1.40;;;21.80;99.90;;;;;;5041727;28;20206;-90
2021/07/28 11:46:16;;;;;;;4.22;1.58;;;21.30;99.90;;;;;;5041613;28;20546;-90
2021/07/28 11:48:50;;;;;;;3.33;1.73;;;21.40;99.90;;;;;;5041521;28;20243;-89
2021/07/28 11:51:31;;;;;;;1.50;1.38;;;21.90;99.90;;;;;;5041633;28;20171;-90
2021/07/28 11:54:14;;;;;;;1.70;1.42;;;22.10;99.90;;;;;;5041472;28;20517;-91
2021/07/28 11:56:54;;;;;;;1.88;1.58;;;22.50;99.90;;;;;;5041190;28;20187;-88
2021/07/28 11:59:24;;;;;;;2.78;1.63;;;22.80;99.90;;;;;;5038819;28;20178;-89
2021/07/28 12:01:54;;;;;;;6.65;1.88;;;23.10;99.90;;;;;;5040370;28;20171;-91
2021/07/28 12:04:25;;;;;;;4.65;1.30;;;23.00;99.90;;;;;;5040908;28;20171;-90
2021/07/28 12:06:51;;;;;;;4.88;1.00;;;23.30;99.90;;;;;;5041027;28;20159;-90
2021/07/28 12:09:18;;;;;;;7.72;1.73;;;23.30;99.90;;;;;;5043223;28;20234;-91
2021/07/28 12:11:59;;;;;;;4.18;1.60;;;23.20;99.90;;;;;;5064154;28;20257;-94
2021/07/28 12:14:43;;;;;;;2.22;1.90;;;23.10;99.90;;;;;;5037281;28;20210;-80
2021/07/28 12:17:18;;;;;;;3.92;1.60;;;23.40;99.90;;;;;;5032513;28;20171;-81
2021/07/28 12:19:58;;;;;;;6.97;1.42;;;23.30;99.90;;;;;;5033778;28;20171;-80
2021/07/28 12:22:32;;;;;;;2.72;1.80;;;23.30;99.90;;;;;;5052315;28;20566;-80
2021/07/28 12:25:14;;;;;;;2.22;1.52;;;22.80;99.90;;;;;;5034136;28;20282;-81
2021/07/28 12:27:55;;;;;;;2.40;1.13;;;21.80;99.90;;;;;;5034030;28;20223;-80
2021/07/28 12:30:23;;;;;;;2.78;1.20;;;21.00;99.90;;;;;;5033510;28;20171;-78
2021/07/28 12:33:25;;;;;;;2.75;1.50;;;20.60;99.90;;;;;;5051697;28;20202;-80
2021/07/28 12:35:57;;;;;;;6.53;1.60;;;20.30;99.90;;;;;;5028951;28;20219;-78
2021/07/28 12:38:27;;;;;;;4.30;1.40;;;19.80;99.90;;;;;;5033699;28;20175;-78
2021/07/28 12:40:54;;;;;;;2.95;1.30;;;19.90;99.90;;;;;;5033752;28;20183;-78
2021/07/28 12:43:21;;;;;;;1.98;1.52;;;19.90;99.90;;;;;;5033672;28;20199;-78
2021/07/28 12:45:52;;;;;;;9.30;1.25;;;20.10;99.90;;;;;;5052441;28;20267;-81
2021/07/28 12:48:18;;;;;;;1.13;1.00;;;20.30;99.90;;;;;;5052747;28;20250;-80
2021/07/28 12:50:43;;;;;;;3.60;1.25;;;20.50;99.90;;;;;;5034983;28;20203;-80